KSGH/SGH METAR and TAF weather

Enter ICAO airport designator
Station Type Date Time Source
KSGH METAR 2023/02/05 23:56 UTC NOAA

KSGH 052356Z AUTO 25008KT 10SM OVC041 07/01 A2998 RMK AO2 SLP161 T00670011 10100 20067 53023


Station Type Date Time Source
KSGH Decoded METAR 2023/02/05 23:56 UTC NOAA

Springfield, Springfield-Beckley Municipal Airport, OH, United States (KSGH) 39-50-25N 083-50-24W
Feb 05, 2023 - 06:56 PM EST / 2023.02.05 2356 UTC
Wind: from the WSW (250 degrees) at 9 MPH (8 KT):0
Visibility: 10 mile(s):0
Sky conditions: overcast
Temperature: 44.1 F (6.7 C)
Dew Point: 34.0 F (1.1 C)
Relative Humidity: 67%
Pressure (altimeter): 29.98 in. Hg (1015 hPa)
Pressure tendency: 0.07 inches (2.3 hPa) higher than three hours ago
ob: KSGH 052356Z AUTO 25008KT 10SM OVC041 07/01 A2998 RMK AO2 SLP161 T00670011 10100 20067 53023
cycle: 0

Station Type Date Time Source
KSGH TAF UTC NOAA

Error!

Example: see airport list